createdAt,value
2023-06-05T00:00:01.683Z,10.7
2023-06-05T00:02:00.498Z,10.8
2023-06-05T00:04:01.025Z,10.8
2023-06-05T00:06:00.914Z,10.8
2023-06-05T00:08:00.485Z,10.8
2023-06-05T00:10:00.515Z,10.7
2023-06-05T00:12:00.842Z,10.7
2023-06-05T00:14:00.682Z,10.6
2023-06-05T00:16:00.521Z,10.6
2023-06-05T00:18:00.770Z,10.6
2023-06-05T00:20:00.655Z,10.6
2023-06-05T00:22:00.773Z,10.5
2023-06-05T00:24:00.910Z,10.5
2023-06-05T00:26:00.624Z,10.4
2023-06-05T00:28:00.686Z,10.4
2023-06-05T00:30:00.933Z,10.4
2023-06-05T00:32:00.619Z,10.3
2023-06-05T00:34:00.810Z,10.2
2023-06-05T00:36:00.511Z,10.3
2023-06-05T00:38:00.575Z,10.2
2023-06-05T00:40:00.766Z,10.2
2023-06-05T00:42:00.862Z,10.2
2023-06-05T00:44:00.541Z,10.2
2023-06-05T00:46:03.250Z,10.2
2023-06-05T00:48:00.992Z,10.2
2023-06-05T00:50:01.105Z,10.1
2023-06-05T00:52:00.708Z,10.1
2023-06-05T00:54:01.162Z,10.1
2023-06-05T00:56:00.795Z,10.1
2023-06-05T00:58:01.289Z,10.0
2023-06-05T01:00:00.712Z,10.0
2023-06-05T01:02:00.861Z,9.9
2023-06-05T01:04:00.744Z,9.9
2023-06-05T01:06:00.884Z,9.9
2023-06-05T01:08:01.025Z,9.8
2023-06-05T01:10:00.996Z,9.8
2023-06-05T01:12:07.094Z,9.7
2023-06-05T01:14:11.196Z,9.7
2023-06-05T01:16:01.626Z,9.7
2023-06-05T01:18:01.622Z,9.8
2023-06-05T01:20:01.926Z,9.8
2023-06-05T01:22:02.138Z,9.8
2023-06-05T01:24:00.820Z,9.8
2023-06-05T01:26:04.460Z,9.8
2023-06-05T01:28:07.033Z,9.8
2023-06-05T01:30:04.808Z,9.8
2023-06-05T01:32:06.748Z,9.7
2023-06-05T01:34:04.607Z,9.8
2023-06-05T01:36:01.961Z,9.8
2023-06-05T01:38:02.918Z,9.8
2023-06-05T01:40:01.823Z,9.8
2023-06-05T01:42:02.202Z,9.8
2023-06-05T01:44:01.632Z,9.7
2023-06-05T01:46:01.016Z,9.7
2023-06-05T01:48:00.823Z,9.7
2023-06-05T01:50:00.551Z,9.6
2023-06-05T01:52:00.674Z,9.6
2023-06-05T01:54:00.752Z,9.6
2023-06-05T01:56:00.564Z,9.6
2023-06-05T01:58:00.563Z,9.5
2023-06-05T02:00:00.940Z,9.5
2023-06-05T02:02:00.741Z,9.5
2023-06-05T02:04:01.288Z,9.4
2023-06-05T02:06:00.793Z,9.4
2023-06-05T02:08:01.173Z,9.3
2023-06-05T02:10:00.525Z,9.3
2023-06-05T02:12:00.919Z,9.3
2023-06-05T02:14:00.970Z,9.3
2023-06-05T02:16:00.752Z,9.2
2023-06-05T02:18:00.890Z,9.2
2023-06-05T02:20:00.787Z,9.2
2023-06-05T02:22:00.716Z,9.2
2023-06-05T02:24:01.442Z,9.1
2023-06-05T02:26:00.533Z,9.1
2023-06-05T02:28:00.709Z,9.1
2023-06-05T02:30:00.707Z,9.1
2023-06-05T02:32:00.896Z,9.0
2023-06-05T02:34:00.669Z,9.0
2023-06-05T02:36:00.502Z,9.0
2023-06-05T02:38:00.735Z,9.0
2023-06-05T02:40:00.686Z,9.0
2023-06-05T02:42:00.981Z,8.9
2023-06-05T02:44:01.297Z,8.9
2023-06-05T02:46:00.708Z,8.9
2023-06-05T02:48:00.736Z,8.8
2023-06-05T02:50:01.126Z,8.8
2023-06-05T02:52:01.054Z,8.7
2023-06-05T02:54:00.850Z,8.7
2023-06-05T02:56:00.504Z,8.7
2023-06-05T02:58:00.565Z,8.7
2023-06-05T03:00:00.634Z,8.7
2023-06-05T03:02:00.685Z,8.7
2023-06-05T03:04:01.113Z,8.7
2023-06-05T03:06:02.336Z,8.7
2023-06-05T03:08:00.682Z,8.7
2023-06-05T03:10:00.575Z,8.6
2023-06-05T03:12:00.857Z,8.6
2023-06-05T03:14:00.504Z,8.5
2023-06-05T03:16:00.801Z,8.5
2023-06-05T03:18:00.898Z,8.5
2023-06-05T03:20:00.543Z,8.5
2023-06-05T03:22:00.617Z,8.4
2023-06-05T03:24:00.661Z,8.4
2023-06-05T03:26:00.509Z,8.4
2023-06-05T03:28:00.672Z,8.4
2023-06-05T03:30:00.821Z,8.4
2023-06-05T03:32:00.714Z,8.4
2023-06-05T03:34:00.896Z,8.4
2023-06-05T03:36:00.519Z,8.4
2023-06-05T03:38:00.833Z,8.4
2023-06-05T03:40:00.948Z,8.5
2023-06-05T03:42:00.730Z,8.6
2023-06-05T03:44:00.944Z,8.6
2023-06-05T03:46:00.646Z,8.6
2023-06-05T03:48:00.827Z,8.7
2023-06-05T03:50:00.903Z,8.7
2023-06-05T03:52:00.499Z,8.6
2023-06-05T03:54:00.876Z,8.7
2023-06-05T03:56:00.531Z,8.6
2023-06-05T03:58:01.081Z,8.6
2023-06-05T04:00:00.753Z,8.7
2023-06-05T04:02:00.765Z,8.8
2023-06-05T04:04:00.601Z,8.9
2023-06-05T04:06:01.044Z,9.1
2023-06-05T04:08:00.692Z,9.1
2023-06-05T04:10:00.833Z,9.2
2023-06-05T04:12:00.537Z,9.2
2023-06-05T04:14:00.707Z,9.2
2023-06-05T04:16:00.585Z,9.3
2023-06-05T04:18:01.126Z,9.3
2023-06-05T04:20:00.646Z,9.4
2023-06-05T04:22:00.730Z,9.4
2023-06-05T04:24:00.605Z,9.4
2023-06-05T04:26:00.554Z,9.5
2023-06-05T04:28:00.609Z,9.6
2023-06-05T04:30:00.979Z,9.7
2023-06-05T04:32:00.789Z,9.7
2023-06-05T04:34:00.583Z,9.7
2023-06-05T04:36:01.598Z,9.8
2023-06-05T04:40:01.444Z,10.0
2023-06-05T04:42:14.551Z,10.1
2023-06-05T04:44:00.769Z,10.2
2023-06-05T04:46:00.701Z,10.3
2023-06-05T04:48:00.560Z,10.4
2023-06-05T04:50:02.216Z,10.4
2023-06-05T04:52:00.904Z,10.5
2023-06-05T04:54:00.813Z,10.6
2023-06-05T04:56:00.878Z,10.7
2023-06-05T04:58:00.529Z,10.8
2023-06-05T05:00:00.520Z,10.9
2023-06-05T05:02:00.724Z,11.1
2023-06-05T05:04:00.734Z,11.1
2023-06-05T05:06:00.926Z,11.2
2023-06-05T05:08:01.105Z,11.3
2023-06-05T05:10:00.730Z,11.5
2023-06-05T05:12:00.510Z,11.6
2023-06-05T05:14:00.681Z,11.7
2023-06-05T05:16:00.558Z,11.8
2023-06-05T05:18:00.974Z,11.9
2023-06-05T05:20:01.028Z,12.1
2023-06-05T05:22:00.741Z,12.2
2023-06-05T05:24:00.733Z,12.4
2023-06-05T05:26:00.633Z,12.5
2023-06-05T05:28:00.693Z,12.6
2023-06-05T05:30:00.734Z,12.8
2023-06-05T05:32:00.859Z,12.8
2023-06-05T05:34:00.631Z,13.0
2023-06-05T05:36:00.554Z,13.1
2023-06-05T05:38:00.515Z,13.2
2023-06-05T05:40:00.855Z,13.2
2023-06-05T05:42:00.977Z,13.4
2023-06-05T05:44:00.541Z,13.5
2023-06-05T05:46:00.708Z,13.6
2023-06-05T05:48:00.714Z,13.6
2023-06-05T05:50:00.511Z,13.7
2023-06-05T05:52:00.892Z,13.8
2023-06-05T05:54:00.879Z,13.9
2023-06-05T05:56:00.745Z,14.0
2023-06-05T05:58:00.533Z,14.0
2023-06-05T06:00:00.592Z,14.1
2023-06-05T06:02:00.585Z,14.2
2023-06-05T06:04:00.997Z,14.3
2023-06-05T06:06:00.783Z,14.4
2023-06-05T06:08:02.132Z,14.5
2023-06-05T06:10:01.238Z,14.6
2023-06-05T06:12:00.530Z,14.7
2023-06-05T06:14:00.518Z,14.8
2023-06-05T06:16:00.771Z,14.9
2023-06-05T06:18:01.099Z,15.0
2023-06-05T06:20:00.963Z,15.0
2023-06-05T06:22:00.771Z,15.1
2023-06-05T06:24:00.976Z,15.2
2023-06-05T06:26:00.671Z,15.1
2023-06-05T06:28:00.948Z,15.1
2023-06-05T06:30:00.747Z,15.0
2023-06-05T06:32:00.557Z,14.9
2023-06-05T06:34:00.781Z,15.0
2023-06-05T06:36:00.802Z,15.2
2023-06-05T06:38:00.905Z,15.3
2023-06-05T06:40:00.810Z,15.4
2023-06-05T06:42:00.856Z,15.6
2023-06-05T06:44:01.674Z,15.7
2023-06-05T06:46:00.713Z,15.8
2023-06-05T06:48:07.848Z,15.9
2023-06-05T06:50:00.513Z,15.8
2023-06-05T06:52:00.560Z,15.8
2023-06-05T06:54:00.952Z,15.9
2023-06-05T06:56:00.876Z,16.1
2023-06-05T06:58:00.544Z,16.1
2023-06-05T07:00:00.579Z,16.2
2023-06-05T07:02:09.601Z,16.3
2023-06-05T07:04:00.811Z,16.5
2023-06-05T07:06:00.816Z,16.7
2023-06-05T07:08:00.890Z,16.8
2023-06-05T07:10:00.516Z,17.0
2023-06-05T07:12:00.691Z,17.0
2023-06-05T07:14:00.576Z,17.1
2023-06-05T07:16:00.621Z,17.1
2023-06-05T07:18:00.926Z,17.1
2023-06-05T07:20:00.916Z,17.4
2023-06-05T07:22:01.789Z,17.3
2023-06-05T07:24:00.594Z,17.3
2023-06-05T07:26:00.742Z,17.3
2023-06-05T07:28:00.771Z,17.5
2023-06-05T07:30:00.713Z,17.8
2023-06-05T07:32:01.168Z,17.8
2023-06-05T07:34:00.629Z,18.0
2023-06-05T07:36:00.943Z,18.2
2023-06-05T07:38:01.006Z,18.3
2023-06-05T07:40:00.580Z,18.4
2023-06-05T07:42:02.388Z,18.2
2023-06-05T07:44:00.509Z,18.5
2023-06-05T07:46:00.634Z,18.5
2023-06-05T07:48:00.776Z,18.6
2023-06-05T07:50:02.823Z,18.6
2023-06-05T07:52:02.287Z,18.7
2023-06-05T07:54:00.811Z,18.9
2023-06-05T07:56:00.584Z,19.0
2023-06-05T07:58:00.949Z,19.1
2023-06-05T08:00:00.777Z,19.4
2023-06-05T08:02:00.977Z,19.5
2023-06-05T08:04:00.636Z,19.4
2023-06-05T08:06:01.220Z,19.1
2023-06-05T08:08:00.638Z,19.2
2023-06-05T08:10:00.527Z,19.3
2023-06-05T08:12:00.756Z,19.6
2023-06-05T08:14:01.051Z,19.8
2023-06-05T08:16:00.650Z,19.9
2023-06-05T08:18:01.613Z,19.9
2023-06-05T08:20:00.515Z,20.0
2023-06-05T08:22:00.867Z,20.1
2023-06-05T08:24:00.596Z,20.0
2023-06-05T08:26:01.497Z,19.8
2023-06-05T08:28:00.589Z,20.0
2023-06-05T08:30:00.949Z,20.2
2023-06-05T08:32:00.761Z,20.3
2023-06-05T08:34:00.549Z,20.1
2023-06-05T08:36:00.969Z,20.5
2023-06-05T08:38:02.399Z,20.5
2023-06-05T08:40:00.570Z,20.7
2023-06-05T08:42:01.208Z,20.8
2023-06-05T08:44:00.785Z,20.7
2023-06-05T08:46:01.188Z,20.6
2023-06-05T08:48:01.067Z,20.7
2023-06-05T08:50:03.312Z,20.9
2023-06-05T08:52:03.203Z,21.1
2023-06-05T08:54:04.197Z,21.2
2023-06-05T08:56:01.692Z,21.2
2023-06-05T08:58:02.337Z,21.4
2023-06-05T09:00:04.902Z,21.4
2023-06-05T09:02:00.672Z,21.6
2023-06-05T09:04:01.681Z,21.6
2023-06-05T09:06:00.930Z,21.8
2023-06-05T09:08:01.477Z,21.8
2023-06-05T09:10:00.819Z,22.0
2023-06-05T09:12:02.543Z,22.1
2023-06-05T09:14:01.608Z,22.2
2023-06-05T09:16:00.646Z,22.1
2023-06-05T09:18:09.848Z,22.1
2023-06-05T09:20:01.859Z,22.3
2023-06-05T09:22:02.108Z,22.5
2023-06-05T09:24:13.159Z,22.6
2023-06-05T09:26:00.853Z,22.6
2023-06-05T09:28:07.884Z,22.6
2023-06-05T09:30:03.060Z,22.7
2023-06-05T09:32:03.003Z,22.9
2023-06-05T09:34:00.571Z,23.1
2023-06-05T09:36:06.309Z,23.3
2023-06-05T09:38:02.880Z,23.1
2023-06-05T09:40:00.751Z,23.1
2023-06-05T09:42:01.243Z,23.3
2023-06-05T09:44:07.340Z,23.5
2023-06-05T09:46:06.603Z,23.6
2023-06-05T09:48:13.180Z,23.5
2023-06-05T09:50:00.903Z,23.1
2023-06-05T09:52:01.406Z,23.1
2023-06-05T09:54:03.003Z,23.5
2023-06-05T09:56:01.776Z,23.6
2023-06-05T09:58:04.312Z,23.4
2023-06-05T10:00:02.765Z,23.5
2023-06-05T10:02:02.957Z,23.4
2023-06-05T10:04:05.958Z,23.8
2023-06-05T10:06:01.897Z,24.0
2023-06-05T10:08:01.066Z,23.8
2023-06-05T10:10:01.801Z,23.6
2023-06-05T10:12:03.295Z,23.7
2023-06-05T10:14:02.924Z,23.8
2023-06-05T10:16:04.728Z,24.0
2023-06-05T10:18:01.529Z,24.1
2023-06-05T10:20:01.418Z,24.1
2023-06-05T10:22:00.869Z,24.1
2023-06-05T10:24:06.088Z,24.3
2023-06-05T10:26:06.999Z,24.5
2023-06-05T10:28:18.684Z,24.4
2023-06-05T10:30:20.306Z,24.6
2023-06-05T10:32:03.712Z,24.9
2023-06-05T10:34:08.204Z,25.0
2023-06-05T10:36:10.499Z,25.1
2023-06-05T10:38:15.456Z,25.0
2023-06-05T10:40:00.902Z,25.0
2023-06-05T10:42:00.893Z,25.0
2023-06-05T10:44:00.590Z,24.9
2023-06-05T10:48:00.820Z,25.2
2023-06-05T10:50:19.236Z,25.2
2023-06-05T10:52:00.615Z,25.2
2023-06-05T10:54:00.732Z,25.1
2023-06-05T10:56:00.627Z,25.2
2023-06-05T10:58:05.030Z,25.5
2023-06-05T11:00:05.623Z,25.6
2023-06-05T11:02:20.346Z,25.5
2023-06-05T11:04:00.867Z,25.7
2023-06-05T11:06:10.863Z,25.2
2023-06-05T11:08:11.493Z,25.4
2023-06-05T11:10:09.809Z,25.6
2023-06-05T11:12:01.501Z,25.7
2023-06-05T11:14:00.982Z,25.6
2023-06-05T11:16:00.652Z,25.9
2023-06-05T11:18:20.346Z,25.7
2023-06-05T11:20:02.185Z,26.0
2023-06-05T11:22:02.900Z,25.9
2023-06-05T11:24:13.637Z,25.7
2023-06-05T11:26:20.317Z,25.7
2023-06-05T11:28:02.516Z,25.7
2023-06-05T11:30:01.785Z,25.9
2023-06-05T11:32:10.236Z,26.2
2023-06-05T11:34:00.680Z,26.2
2023-06-05T11:36:02.060Z,26.3
2023-06-05T11:38:10.936Z,26.2
2023-06-05T11:40:01.707Z,26.1
2023-06-05T11:42:00.853Z,26.2
2023-06-05T11:44:00.537Z,26.6
2023-06-05T11:46:00.848Z,26.5
2023-06-05T11:48:04.832Z,26.5
2023-06-05T11:50:08.782Z,26.1
2023-06-05T11:52:00.623Z,26.3
2023-06-05T11:54:01.505Z,26.2
2023-06-05T11:56:00.846Z,26.6
2023-06-05T11:58:00.549Z,27.0
2023-06-05T12:00:00.650Z,26.9
2023-06-05T12:02:00.954Z,27.0
2023-06-05T12:04:02.989Z,26.9
2023-06-05T12:06:01.173Z,26.9
2023-06-05T12:08:20.341Z,26.2
2023-06-05T12:10:00.532Z,26.1
2023-06-05T12:12:08.898Z,26.5
2023-06-05T12:14:00.849Z,26.6
2023-06-05T12:16:00.855Z,26.6
2023-06-05T12:18:00.807Z,26.7
2023-06-05T12:20:00.800Z,27.0
2023-06-05T12:22:03.664Z,27.0
2023-06-05T12:24:01.842Z,27.0
2023-06-05T12:26:02.464Z,27.5
2023-06-05T12:28:01.271Z,27.3
2023-06-05T12:30:00.968Z,27.3
2023-06-05T12:32:01.559Z,27.5
2023-06-05T12:34:01.986Z,27.3
2023-06-05T12:36:04.961Z,27.5
2023-06-05T12:38:00.530Z,27.5
2023-06-05T12:40:01.728Z,27.6
2023-06-05T12:42:00.928Z,27.2
2023-06-05T12:44:02.354Z,27.6
2023-06-05T12:46:01.881Z,27.7
2023-06-05T12:48:00.820Z,27.9
2023-06-05T12:50:01.071Z,27.4
2023-06-05T12:52:00.552Z,27.2
2023-06-05T12:54:00.909Z,27.1
2023-06-05T12:56:00.531Z,27.2
2023-06-05T12:58:00.770Z,27.6
2023-06-05T13:00:04.158Z,27.3
2023-06-05T13:02:00.725Z,27.1
2023-06-05T13:04:00.738Z,27.0
2023-06-05T13:06:02.360Z,27.3
2023-06-05T13:08:01.337Z,27.4
2023-06-05T13:10:00.876Z,27.6
2023-06-05T13:12:01.389Z,27.8
2023-06-05T13:14:01.124Z,27.8
2023-06-05T13:16:00.660Z,28.0
2023-06-05T13:18:01.047Z,28.0
2023-06-05T13:20:00.844Z,28.0
2023-06-05T13:22:01.018Z,27.8
2023-06-05T13:24:00.581Z,27.6
2023-06-05T13:26:01.199Z,27.9
2023-06-05T13:28:00.511Z,28.0
2023-06-05T13:30:01.196Z,28.0
2023-06-05T13:32:00.555Z,27.7
2023-06-05T13:34:00.524Z,27.3
2023-06-05T13:36:00.855Z,27.6
2023-06-05T13:38:00.519Z,27.5
2023-06-05T13:40:00.519Z,27.5
2023-06-05T13:42:01.159Z,27.9
2023-06-05T13:44:00.730Z,27.6
2023-06-05T13:46:00.825Z,28.0
2023-06-05T13:48:00.654Z,28.3
2023-06-05T13:50:00.557Z,28.2
2023-06-05T13:52:00.701Z,28.1
2023-06-05T13:54:00.773Z,28.1
2023-06-05T13:56:00.769Z,28.3
2023-06-05T13:58:00.515Z,28.4
2023-06-05T14:00:00.661Z,28.2
2023-06-05T14:02:00.785Z,27.9
2023-06-05T14:04:00.631Z,27.8
2023-06-05T14:06:00.940Z,28.0
2023-06-05T14:08:00.607Z,28.2
2023-06-05T14:10:00.635Z,28.3
2023-06-05T14:12:01.723Z,28.4
2023-06-05T14:14:00.530Z,28.5
2023-06-05T14:16:00.594Z,28.4
2023-06-05T14:18:02.565Z,28.3
2023-06-05T14:20:00.713Z,28.5
2023-06-05T14:22:00.718Z,28.6
2023-06-05T14:24:01.019Z,28.4
2023-06-05T14:26:00.652Z,28.1
2023-06-05T14:28:00.534Z,28.1
2023-06-05T14:30:01.668Z,28.0
2023-06-05T14:32:00.939Z,28.3
2023-06-05T14:34:00.588Z,28.5
2023-06-05T14:36:00.633Z,28.4
2023-06-05T14:38:00.616Z,28.4
2023-06-05T14:40:00.647Z,28.1
2023-06-05T14:42:00.760Z,28.1
2023-06-05T14:44:13.917Z,28.2
2023-06-05T14:46:00.613Z,28.1
2023-06-05T14:48:00.754Z,28.1
2023-06-05T14:50:00.727Z,28.3
2023-06-05T14:52:00.680Z,28.2
2023-06-05T14:54:00.710Z,28.4
2023-06-05T14:56:00.645Z,28.6
2023-06-05T14:58:00.543Z,28.3
2023-06-05T15:00:00.751Z,27.9
2023-06-05T15:02:00.648Z,27.7
2023-06-05T15:04:00.843Z,27.9
2023-06-05T15:06:14.807Z,28.2
2023-06-05T15:08:00.743Z,28.2
2023-06-05T15:10:00.522Z,28.2
2023-06-05T15:12:00.530Z,27.8
2023-06-05T15:14:00.700Z,27.9
2023-06-05T15:16:00.798Z,27.7
2023-06-05T15:18:01.023Z,27.9
2023-06-05T15:20:01.049Z,28.1
2023-06-05T15:22:00.674Z,28.2
2023-06-05T15:24:00.597Z,28.3
2023-06-05T15:26:00.788Z,28.2
2023-06-05T15:28:00.732Z,28.1
2023-06-05T15:30:01.005Z,27.9
2023-06-05T15:32:15.264Z,28.4
2023-06-05T15:34:00.841Z,28.3
2023-06-05T15:36:01.512Z,28.2
2023-06-05T15:38:01.008Z,28.3
2023-06-05T15:40:00.562Z,28.0
2023-06-05T15:42:00.848Z,27.9
2023-06-05T15:44:00.682Z,27.3
2023-06-05T15:46:00.636Z,27.5
2023-06-05T15:48:01.209Z,27.0
2023-06-05T15:50:01.332Z,27.2
2023-06-05T15:52:00.717Z,27.5
2023-06-05T15:54:15.241Z,27.5
2023-06-05T15:56:00.540Z,27.5
2023-06-05T15:58:00.566Z,27.5
2023-06-05T16:00:00.857Z,27.5
2023-06-05T16:02:01.980Z,27.2
2023-06-05T16:04:00.586Z,27.1
2023-06-05T16:06:01.228Z,26.8
2023-06-05T16:08:00.648Z,26.8
2023-06-05T16:10:00.527Z,26.4
2023-06-05T16:12:01.092Z,26.4
2023-06-05T16:14:00.922Z,26.2
2023-06-05T16:16:00.539Z,25.9
2023-06-05T16:18:00.840Z,25.4
2023-06-05T16:20:00.675Z,25.9
2023-06-05T16:22:00.945Z,25.6
2023-06-05T16:24:00.967Z,25.5
2023-06-05T16:26:00.516Z,25.4
2023-06-05T16:28:00.784Z,25.5
2023-06-05T16:30:00.873Z,25.7
2023-06-05T16:32:00.844Z,25.4
2023-06-05T16:34:08.052Z,25.1
2023-06-05T16:36:00.726Z,24.8
2023-06-05T16:38:00.622Z,24.7
2023-06-05T16:40:00.747Z,24.5
2023-06-05T16:42:02.026Z,24.3
2023-06-05T16:44:00.738Z,24.2
2023-06-05T16:46:01.074Z,24.1
2023-06-05T16:48:00.683Z,24.1
2023-06-05T16:50:00.899Z,24.0
2023-06-05T16:52:00.647Z,23.9
2023-06-05T16:54:00.784Z,23.9
2023-06-05T16:56:00.567Z,23.9
2023-06-05T16:58:00.962Z,23.9
2023-06-05T17:00:00.635Z,23.8
2023-06-05T17:02:00.956Z,23.8
2023-06-05T17:04:00.917Z,23.8
2023-06-05T17:06:01.727Z,23.7
2023-06-05T17:08:00.757Z,23.7
2023-06-05T17:10:00.825Z,23.7
2023-06-05T17:12:00.854Z,23.7
2023-06-05T17:14:00.746Z,23.5
2023-06-05T17:16:00.716Z,23.5
2023-06-05T17:18:01.055Z,23.4
2023-06-05T17:20:00.644Z,23.3
2023-06-05T17:22:01.244Z,23.4
2023-06-05T17:24:00.859Z,23.3
2023-06-05T17:26:00.668Z,23.2
2023-06-05T17:28:00.579Z,23.2
2023-06-05T17:30:00.766Z,23.2
2023-06-05T17:32:00.810Z,23.1
2023-06-05T17:34:00.719Z,23.0
2023-06-05T17:36:01.001Z,23.0
2023-06-05T17:38:00.698Z,23.0
2023-06-05T17:40:00.565Z,23.0
2023-06-05T17:42:02.002Z,23.0
2023-06-05T17:44:01.217Z,22.9
2023-06-05T17:46:00.959Z,22.8
2023-06-05T17:48:00.811Z,22.7
2023-06-05T17:50:00.816Z,22.7
2023-06-05T17:52:00.863Z,22.6
2023-06-05T17:54:01.099Z,22.6
2023-06-05T17:56:01.184Z,22.5
2023-06-05T17:58:00.912Z,22.5
2023-06-05T18:00:00.918Z,22.4
2023-06-05T18:02:01.036Z,22.4
2023-06-05T18:04:00.854Z,22.3
2023-06-05T18:06:00.735Z,22.3
2023-06-05T18:08:00.549Z,22.2
2023-06-05T18:10:00.662Z,22.2
2023-06-05T18:12:00.660Z,22.1
2023-06-05T18:14:02.269Z,22.2
2023-06-05T18:16:00.625Z,22.1
2023-06-05T18:18:01.135Z,22.1
2023-06-05T18:20:00.758Z,21.9
2023-06-05T18:22:00.922Z,21.9
2023-06-05T18:24:00.582Z,21.9
2023-06-05T18:26:00.509Z,21.8
2023-06-05T18:28:00.877Z,21.7
2023-06-05T18:30:00.887Z,21.6
2023-06-05T18:32:00.522Z,21.6
2023-06-05T18:34:00.875Z,21.5
2023-06-05T18:36:00.558Z,21.5
2023-06-05T18:38:00.592Z,21.4
2023-06-05T18:40:01.312Z,21.3
2023-06-05T18:42:00.872Z,21.1
2023-06-05T18:44:00.609Z,21.0
2023-06-05T18:46:01.553Z,20.8
2023-06-05T18:48:00.822Z,20.8
2023-06-05T18:50:00.844Z,20.6
2023-06-05T18:52:00.819Z,20.5
2023-06-05T18:54:00.766Z,20.3
2023-06-05T18:56:00.604Z,20.2
2023-06-05T18:58:00.606Z,20.1
2023-06-05T19:00:00.567Z,20.0
2023-06-05T19:02:00.594Z,19.9
2023-06-05T19:04:00.948Z,19.8
2023-06-05T19:06:00.970Z,19.8
2023-06-05T19:08:00.967Z,19.7
2023-06-05T19:10:01.978Z,19.7
2023-06-05T19:12:02.104Z,19.6
2023-06-05T19:14:00.605Z,19.5
2023-06-05T19:16:00.619Z,19.4
2023-06-05T19:18:01.011Z,19.3
2023-06-05T19:20:00.740Z,19.2
2023-06-05T19:22:00.749Z,19.0
2023-06-05T19:24:00.929Z,18.8
2023-06-05T19:26:01.960Z,18.8
2023-06-05T19:28:00.649Z,18.8
2023-06-05T19:30:00.709Z,18.8
2023-06-05T19:32:01.018Z,18.6
2023-06-05T19:34:00.601Z,18.5
2023-06-05T19:36:00.568Z,18.4
2023-06-05T19:38:00.588Z,18.2
2023-06-05T19:40:00.769Z,18.1
2023-06-05T19:42:01.005Z,18.0
2023-06-05T19:44:00.761Z,17.9
2023-06-05T19:46:00.570Z,17.8
2023-06-05T19:48:00.823Z,17.7
2023-06-05T19:50:03.043Z,17.7
2023-06-05T19:52:00.501Z,17.6
2023-06-05T19:54:00.916Z,17.5
2023-06-05T19:56:00.621Z,17.3
2023-06-05T19:58:00.742Z,17.2
2023-06-05T20:00:00.665Z,17.1
2023-06-05T20:02:00.713Z,17.0
2023-06-05T20:04:00.720Z,16.9
2023-06-05T20:06:01.742Z,16.8
2023-06-05T20:08:00.554Z,16.7
2023-06-05T20:10:00.695Z,16.7
2023-06-05T20:12:00.776Z,16.6
2023-06-05T20:14:00.527Z,16.6
2023-06-05T20:16:01.087Z,16.5
2023-06-05T20:18:00.927Z,16.5
2023-06-05T20:20:00.569Z,16.5
2023-06-05T20:22:00.924Z,16.5
2023-06-05T20:24:00.572Z,16.4
2023-06-05T20:26:00.889Z,16.2
2023-06-05T20:28:00.824Z,16.2
2023-06-05T20:30:00.855Z,16.1
2023-06-05T20:32:00.904Z,16.1
2023-06-05T20:34:00.786Z,16.1
2023-06-05T20:36:00.508Z,16.2
2023-06-05T20:38:00.721Z,16.5
2023-06-05T20:40:00.631Z,16.7
2023-06-05T20:42:00.873Z,16.7
2023-06-05T20:44:00.591Z,16.4
2023-06-05T20:46:01.109Z,16.3
2023-06-05T20:48:00.533Z,16.1
2023-06-05T20:50:00.762Z,16.0
2023-06-05T20:52:00.892Z,15.8
2023-06-05T20:54:02.427Z,15.7
2023-06-05T20:56:00.620Z,15.6
2023-06-05T20:58:03.067Z,15.6
2023-06-05T21:00:00.548Z,15.5
2023-06-05T21:02:00.677Z,15.4
2023-06-05T21:04:00.686Z,15.4
2023-06-05T21:06:00.932Z,15.3
2023-06-05T21:08:01.576Z,15.3
2023-06-05T21:10:00.987Z,15.3
2023-06-05T21:12:00.709Z,15.3
2023-06-05T21:14:00.624Z,15.2
2023-06-05T21:16:00.696Z,15.2
2023-06-05T21:18:00.926Z,15.2
2023-06-05T21:20:01.971Z,15.1
2023-06-05T21:22:01.534Z,15.1
2023-06-05T21:24:00.628Z,15.1
2023-06-05T21:26:00.523Z,15.0
2023-06-05T21:28:00.638Z,15.1
2023-06-05T21:30:00.684Z,15.1
2023-06-05T21:32:00.576Z,15.1
2023-06-05T21:34:00.723Z,15.1
2023-06-05T21:36:00.671Z,15.1
2023-06-05T21:38:00.706Z,15.1
2023-06-05T21:40:00.539Z,15.0
2023-06-05T21:42:01.257Z,15.0
2023-06-05T21:44:00.679Z,15.0
2023-06-05T21:46:00.914Z,15.0
2023-06-05T21:48:00.603Z,15.0
2023-06-05T21:50:00.500Z,15.0
2023-06-05T21:52:00.840Z,15.0
2023-06-05T21:54:01.018Z,15.1
2023-06-05T21:56:00.691Z,15.2
2023-06-05T21:58:00.524Z,15.2
2023-06-05T22:00:00.699Z,15.3
2023-06-05T22:02:00.697Z,15.3
2023-06-05T22:04:00.634Z,15.4
2023-06-05T22:06:00.740Z,15.4
2023-06-05T22:08:00.962Z,15.4
2023-06-05T22:10:01.406Z,15.4
2023-06-05T22:12:00.758Z,15.5
2023-06-05T22:14:01.236Z,15.5
2023-06-05T22:16:00.593Z,15.7
2023-06-05T22:18:00.766Z,16.0
2023-06-05T22:20:00.856Z,16.1
2023-06-05T22:22:00.880Z,16.1
2023-06-05T22:24:00.760Z,16.1
2023-06-05T22:26:00.518Z,16.0
2023-06-05T22:28:00.541Z,15.8
2023-06-05T22:30:01.022Z,15.7
2023-06-05T22:32:00.630Z,15.6
2023-06-05T22:34:01.321Z,15.5
2023-06-05T22:36:00.545Z,15.4
2023-06-05T22:38:00.530Z,15.4
2023-06-05T22:40:01.097Z,15.3
2023-06-05T22:42:00.827Z,15.3
2023-06-05T22:44:00.505Z,15.3
2023-06-05T22:46:01.039Z,15.3
2023-06-05T22:48:00.605Z,15.2
2023-06-05T22:50:00.862Z,15.1
2023-06-05T22:52:00.815Z,15.0
2023-06-05T22:54:00.760Z,14.9
2023-06-05T22:56:00.883Z,14.8
2023-06-05T22:58:00.950Z,14.7
2023-06-05T23:00:00.620Z,14.7
2023-06-05T23:02:00.696Z,14.8
2023-06-05T23:04:01.140Z,14.7
2023-06-05T23:06:00.922Z,14.6
2023-06-05T23:08:00.549Z,14.6
2023-06-05T23:10:00.931Z,14.5
2023-06-05T23:12:01.624Z,14.6
2023-06-05T23:14:00.539Z,14.6
2023-06-05T23:16:00.760Z,14.5
2023-06-05T23:18:00.930Z,14.5
2023-06-05T23:20:00.818Z,14.5
2023-06-05T23:22:00.544Z,14.5
2023-06-05T23:24:00.783Z,14.3
2023-06-05T23:26:00.663Z,14.3
2023-06-05T23:28:00.806Z,14.3
2023-06-05T23:30:00.866Z,14.3
2023-06-05T23:32:00.609Z,14.3
2023-06-05T23:34:00.551Z,14.2
2023-06-05T23:36:00.782Z,14.1
2023-06-05T23:38:00.679Z,14.0
2023-06-05T23:40:00.617Z,14.0
2023-06-05T23:42:01.299Z,14.0
2023-06-05T23:44:00.635Z,13.9
2023-06-05T23:46:00.551Z,13.9
2023-06-05T23:48:00.829Z,13.9
2023-06-05T23:50:00.667Z,13.8
2023-06-05T23:52:00.934Z,13.8
2023-06-05T23:54:00.533Z,13.7
2023-06-05T23:56:00.724Z,13.7
2023-06-05T23:58:00.558Z,13.7
